NCAR-RAP Real-Time Weather Data

Output produced by METARs form (19 June 2019  12:04 UTC)
found at http://weather.rap.ucar.edu/surface/
 
KDBQ 191153Z 06005KT 3SM -RA BR FEW055 OVC070 17/17 A2983 RMK AO2 SLP096 P0000 60005 70005 T01720167 10189 20172 55004
KDBQ 191146Z 05005KT 2 1/2SM -RA BR FEW043 BKN075 OVC090 17/17 A2982 RMK AO2 P0000 T01720167
KDBQ 191104Z 03005KT 5SM -RA BR SCT004 SCT045 BKN070 17/17 A2982 RMK AO2 P0000 T01720167
KDBQ 191053Z 03005KT 4SM -RA BR BKN003 OVC075 17/17 A2982 RMK AO2 CIG 002V007 SLP094 P0001 T01720167
KDBQ 191028Z AUTO 04005KT 3SM -RA BR BKN003 OVC038 18/17 A2981 RMK AO2 P0001 T01780172
KDBQ 190953Z AUTO 03004KT 4SM -RA BR FEW004 BKN036 OVC043 18/17 A2983 RMK AO2 SLP095 P0002 T01780172
KDBQ 190914Z AUTO 01005KT 3SM -RA BR FEW008 BKN055 OVC080 18/17 A2984 RMK AO2 P0001 T01780172
KDBQ 190853Z AUTO 34005KT 4SM -RA BR SCT035 BKN050 OVC080 18/17 A2984 RMK AO2 RAB06 SLP099 P0002 60002 T01780172 56012
KDBQ 190753Z AUTO 02003KT 3SM BR BKN060 OVC075 18/18 A2985 RMK AO2 SLP102 T01830178
KDBQ 190653Z AUTO 04004KT 4SM BR OVC070 19/18 A2985 RMK AO2 SLP105 T01890178
KDBQ 190553Z AUTO 02003KT 6SM BR FEW075 OVC100 19/18 A2987 RMK AO2 SLP111 T01890178 10228 20189 402390128 58004
KDBQ 190453Z AUTO 00000KT 9SM BKN085 OVC110 19/18 A2988 RMK AO2 SLP112 T01940178
KDBQ 190353Z AUTO 00000KT 9SM BKN080 19/18 A2989 RMK AO2 SLP115 T01940178
KDBQ 190253Z AUTO 00000KT 10SM BKN080 20/18 A2989 RMK AO2 SLP116 T02000178 53002
KDBQ 190153Z AUTO 36003KT 10SM OVC070 21/18 A2988 RMK AO2 SLP115 T02060178
KDBQ 190053Z 01003KT 9SM BKN065 OVC080 22/18 A2988 RMK AO2 SLP116 T02170183
KDBQ 182353Z 26004KT 10SM SCT028 SCT032 OVC080 22/18 A2988 RMK AO2 SLP116 T02220178 10239 20217 56006
KDBQ 182300Z 27006KT 10SM FEW028 OVC080 23/17 A2989 RMK AO2 T02280172
KDBQ 182253Z 25005KT 10SM BKN028 OVC080 22/17 A2989 RMK AO2 SLP118 T02220172
KDBQ 182251Z 23005KT 10SM BKN028 OVC080 22/17 A2989 RMK AO2
KDBQ 182153Z 25003KT 10SM FEW029 BKN100 23/17 A2990 RMK AO2 SLP121 T02330167
KDBQ 182053Z 00000KT 10SM OVC095 23/17 A2992 RMK AO2 SLP127 T02330167 56016
KDBQ 181953Z VRB03KT 10SM OVC100 24/17 A2993 RMK AO2 SLP132 T02390167
KDBQ 181853Z 30006KT 10SM FEW025 SCT030 OVC100 23/17 A2995 RMK AO2 SLP138 T02280167
KDBQ 181753Z 19005KT 10SM BKN026 BKN035 22/16 A2996 RMK AO2 SLP144 T02170161 10233 20150 56005
KDBQ 181653Z 00000KT 10SM CLR 22/16 A2997 RMK AO2 SLP145 T02220161
KDBQ 181643Z 00000KT 10SM SCT021 22/16 A2997 RMK AO2 T02170161
KDBQ 181600Z 29006KT 10SM BKN019 21/16 A2998 RMK AO2 T02110161
KDBQ 181553Z 26007KT 10SM SCT019 BKN085 22/17 A2998 RMK AO2 SLP149 T02170167